Airfield :
LOGIN :

Register | Disclaimer

   EN    FR    IT 

 










Legend :    VFR   Marginal VFR   IFR   Intensive IFR   Very Intensive IFR
Visi :
Ceiling :
>= 8 km
>= 3000ft
5 to 8 km
1000 to 3000 ft
1500m to 5 km
500 to 1000 ft
800 to 1500m
200 to 500 ft
< 800m
< 200 ft
Symbols :   Thunderstorms  Fog  Heavy snow  Heavy precipitations  Wind > 20 kt
SIGMETs :     Misc.  Thunderstorms  Icing  Turbulence  Mountain Waves  Volcanic Ashes






- Airport Elevation : 1084 ft
- IATA code : EPL


LFSG - Épinal-Mirecourt

CURRENT METAR :
  • 011400Z AUTO 05008KT 9999 BKN025 OVC033 04/00 Q1022

EXPIRED METARs :
  • 011330Z AUTO 05013KT 9999 OVC025 04/01 Q1022
  • 011300Z AUTO 05012KT 9999 OVC022 04/01 Q1022
  • 011230Z AUTO 04010KT 9999 BKN020 OVC034 04/01 Q1022
  • 011200Z AUTO 04012KT 9999 OVC021 04/01 Q1022
  • 011130Z AUTO 03009KT 9999 BKN021 OVC033 04/01 Q1022
  • 011100Z AUTO 05009KT 9999 FEW017 OVC030 04/01 Q1022

TAF N/A



MET'MAP, your aeronautical weather chart ! - Copyright ORBIFLY December 2007 - Disclaimer

ORBIFLY MET'MAP TEAM :

Programming & Development : Alexandra Zaïnal
Original concept : Baudouin d'Aumeries
Technical & hardware support : Manuel Goepfert
Assistance : Marc-Olivier Méhu




SOURCES & CREDITS :

   NOAA